Time;durP1;ratioP1;P1;durP2;ratioP2;P2;SDS_P1;SDS_P2;PMS_P1;PMS_P2;Temp;Humidity;BMP_temperature;BMP_pressure;BME280_temperature;BME280_humidity;BME280_pressure;Samples;Min_cycle;Max_cycle;Signal;HPM_P1;HPM_P2
2022/04/14 00:02:01;;;;;;;;;;;12.50;99.90;;;;;;4999657;28;19933;-69
2022/04/14 00:04:27;;;;;;;;;;;11.50;99.90;;;;;;5010594;28;19932;-70
2022/04/14 00:06:53;;;;;;;;;;;11.50;99.90;;;;;;5008470;28;19942;-69
2022/04/14 00:09:18;;;;;;;;;;;11.50;99.90;;;;;;5008622;28;19925;-69
2022/04/14 00:11:44;;;;;;;;;;;11.50;99.90;;;;;;4999164;28;19969;-70
2022/04/14 00:14:09;;;;;;;;;;;11.50;99.90;;;;;;5005907;28;19929;-70
2022/04/14 00:16:35;;;;;;;;;;;11.60;99.90;;;;;;5009399;28;19922;-70
2022/04/14 00:19:00;;;;;;;;;;;11.50;99.90;;;;;;5011180;28;19922;-70
2022/04/14 00:21:26;;;;;;;;;;;11.50;99.90;;;;;;5007132;28;19932;-69
2022/04/14 00:23:51;;;;;;;;;;;11.50;99.90;;;;;;5007539;28;20016;-69
2022/04/14 00:26:17;;;;;;;;;;;11.40;99.90;;;;;;5012502;28;19921;-70
2022/04/14 00:28:43;;;;;;;;;;;11.60;99.90;;;;;;5009559;28;19928;-69
2022/04/14 00:31:08;;;;;;;;;;;12.10;99.90;;;;;;5010175;28;19975;-69
2022/04/14 00:33:34;;;;;;;;;;;11.60;99.90;;;;;;5002805;28;19944;-69
2022/04/14 00:35:59;;;;;;;;;;;11.50;99.90;;;;;;5010604;28;19922;-70
2022/04/14 00:38:25;;;;;;;;;;;11.40;99.90;;;;;;5005039;28;19922;-70
2022/04/14 00:40:52;;;;;;;;;;;11.30;99.90;;;;;;5006218;28;20375;-69
2022/04/14 00:43:18;;;;;;;;;;;11.40;99.90;;;;;;5001150;28;19929;-69
2022/04/14 00:45:44;;;;;;;;;;;11.30;99.90;;;;;;5005035;28;19922;-70
2022/04/14 00:48:10;;;;;;;;;;;11.20;99.90;;;;;;5011310;28;19922;-70
2022/04/14 00:50:35;;;;;;;;;;;11.30;99.90;;;;;;5011346;28;19921;-70
2022/04/14 00:53:01;;;;;;;;;;;11.20;99.90;;;;;;5009952;28;20378;-70
2022/04/14 00:55:27;;;;;;;;;;;11.20;99.90;;;;;;5002131;28;19984;-70
2022/04/14 00:57:52;;;;;;;;;;;11.10;99.90;;;;;;5000465;28;20402;-70
2022/04/14 01:00:18;;;;;;;;;;;11.00;99.90;;;;;;5005090;28;19929;-69
2022/04/14 01:02:44;;;;;;;;;;;11.00;99.90;;;;;;5017532;28;19976;-70
2022/04/14 01:05:10;;;;;;;;;;;11.00;99.90;;;;;;5009954;28;19925;-69
2022/04/14 01:07:36;;;;;;;;;;;11.00;99.90;;;;;;5029576;28;20007;-69
2022/04/14 01:10:02;;;;;;;;;;;11.10;99.90;;;;;;5009230;28;20013;-69
2022/04/14 01:12:30;;;;;;;;;;;10.90;99.90;;;;;;5005565;28;19925;-69
2022/04/14 01:14:56;;;;;;;;;;;11.00;99.90;;;;;;5011809;28;19972;-69
2022/04/14 01:17:22;;;;;;;;;;;10.80;99.90;;;;;;5009226;28;20015;-69
2022/04/14 01:19:47;;;;;;;;;;;10.80;99.90;;;;;;5011527;28;20419;-69
2022/04/14 01:22:18;;;;;;;;;;;10.80;99.90;;;;;;5007629;28;19933;-69
2022/04/14 01:24:44;;;;;;;;;;;10.80;99.90;;;;;;5011307;28;19930;-68
2022/04/14 01:27:10;;;;;;;;;;;10.80;99.90;;;;;;5005784;28;20306;-71
2022/04/14 01:29:35;;;;;;;;;;;10.70;99.90;;;;;;5003968;28;20372;-70
2022/04/14 01:32:02;;;;;;;;;;;10.70;99.90;;;;;;5004600;28;20317;-69
2022/04/14 01:34:30;;;;;;;;;;;11.90;99.90;;;;;;5001320;28;19933;-70
2022/04/14 01:36:56;;;;;;;;;;;10.60;99.90;;;;;;5007368;28;19929;-69
2022/04/14 01:39:22;;;;;;;;;;;10.60;99.90;;;;;;5002282;28;19972;-70
2022/04/14 01:41:47;;;;;;;;;;;10.50;99.90;;;;;;5017242;28;19960;-70
2022/04/14 01:44:13;;;;;;;;;;;10.60;99.90;;;;;;5008384;28;19929;-70
2022/04/14 01:46:40;;;;;;;;;;;10.50;99.90;;;;;;5005250;28;19921;-70
2022/04/14 01:49:07;;;;;;;;;;;10.50;99.90;;;;;;5004342;28;19940;-70
2022/04/14 01:51:32;;;;;;;;;;;10.60;99.90;;;;;;5010271;28;19921;-69
2022/04/14 01:53:58;;;;;;;;;;;10.40;99.90;;;;;;5008634;28;19975;-69
2022/04/14 01:56:23;;;;;;;;;;;10.40;99.90;;;;;;5005164;28;19936;-70
2022/04/14 01:58:49;;;;;;;;;;;10.40;99.90;;;;;;5010606;28;19921;-70
2022/04/14 02:01:15;;;;;;;;;;;10.30;99.90;;;;;;5011969;28;19925;-69
2022/04/14 02:03:41;;;;;;;;;;;10.30;99.90;;;;;;5007802;28;20330;-70
2022/04/14 02:06:06;;;;;;;;;;;11.50;99.90;;;;;;5008353;28;19952;-70
2022/04/14 02:08:32;;;;;;;;;;;10.30;99.90;;;;;;5008228;28;19972;-69
2022/04/14 02:10:57;;;;;;;;;;;10.20;99.90;;;;;;5008772;28;19922;-70
2022/04/14 02:13:23;;;;;;;;;;;10.20;99.90;;;;;;5008085;28;19930;-69
2022/04/14 02:15:48;;;;;;;;;;;10.20;99.90;;;;;;5009859;28;20303;-70
2022/04/14 02:18:14;;;;;;;;;;;10.20;99.90;;;;;;5007459;28;20009;-69
2022/04/14 02:20:39;;;;;;;;;;;10.40;99.90;;;;;;5003025;28;19929;-70
2022/04/14 02:23:05;;;;;;;;;;;10.10;99.90;;;;;;5008248;28;19936;-70
2022/04/14 02:25:30;;;;;;;;;;;10.10;99.90;;;;;;4996101;28;19929;-69
2022/04/14 02:27:56;;;;;;;;;;;10.10;99.90;;;;;;5002682;28;19929;-68
2022/04/14 02:30:22;;;;;;;;;;;10.20;99.90;;;;;;5008598;28;19941;-69
2022/04/14 02:32:47;;;;;;;;;;;10.00;99.90;;;;;;5022410;28;19922;-70
2022/04/14 02:35:14;;;;;;;;;;;10.00;99.90;;;;;;4997407;28;19922;-69
2022/04/14 02:37:39;;;;;;;;;;;10.90;99.90;;;;;;5001391;28;20331;-69
2022/04/14 02:40:05;;;;;;;;;;;10.00;99.90;;;;;;4997580;28;19918;-69
2022/04/14 02:42:30;;;;;;;;;;;9.90;99.90;;;;;;4979963;28;19922;-69
2022/04/14 02:44:56;;;;;;;;;;;9.90;99.90;;;;;;5003492;28;20027;-70
2022/04/14 02:47:22;;;;;;;;;;;9.90;99.90;;;;;;5008871;28;19933;-69
2022/04/14 02:49:47;;;;;;;;;;;10.90;99.90;;;;;;5009932;28;19979;-69
2022/04/14 02:52:13;;;;;;;;;;;9.80;99.90;;;;;;4999754;28;20008;-69
2022/04/14 02:54:38;;;;;;;;;;;10.00;99.90;;;;;;5006662;28;19921;-69
2022/04/14 02:57:07;;;;;;;;;;;9.70;99.90;;;;;;5011882;28;19921;-70
2022/04/14 02:59:33;;;;;;;;;;;9.70;99.90;;;;;;5003661;28;20288;-69
2022/04/14 03:01:59;;;;;;;;;;;9.70;99.90;;;;;;5008104;28;19921;-70
2022/04/14 03:04:25;;;;;;;;;;;9.70;99.90;;;;;;5003364;28;19981;-70
2022/04/14 03:06:50;;;;;;;;;;;9.60;99.90;;;;;;4993849;28;19925;-70
2022/04/14 03:09:16;;;;;;;;;;;9.60;99.90;;;;;;5010597;28;19975;-69
2022/04/14 03:11:42;;;;;;;;;;;9.60;99.90;;;;;;5012630;28;20008;-69
2022/04/14 03:14:07;;;;;;;;;;;9.80;99.90;;;;;;5011021;28;19921;-68
2022/04/14 03:16:33;;;;;;;;;;;9.60;99.90;;;;;;5009032;28;19945;-70
2022/04/14 03:18:58;;;;;;;;;;;9.60;99.90;;;;;;5004357;28;19921;-69
2022/04/14 03:21:24;;;;;;;;;;;9.60;99.90;;;;;;5010842;28;19948;-69
2022/04/14 03:23:50;;;;;;;;;;;9.60;99.90;;;;;;5003362;28;19976;-70
2022/04/14 03:26:16;;;;;;;;;;;9.50;99.90;;;;;;5015319;28;19922;-71
2022/04/14 03:28:41;;;;;;;;;;;9.50;99.90;;;;;;5003313;28;20350;-70
2022/04/14 03:31:07;;;;;;;;;;;9.50;99.90;;;;;;5008777;28;19921;-70
2022/04/14 03:33:32;;;;;;;;;;;9.50;99.90;;;;;;5005727;28;19922;-70
2022/04/14 03:35:58;;;;;;;;;;;9.40;99.90;;;;;;5003663;28;19928;-69
2022/04/14 03:38:24;;;;;;;;;;;9.40;99.90;;;;;;4999844;28;19968;-71
2022/04/14 03:40:50;;;;;;;;;;;9.40;99.90;;;;;;5007209;28;19921;-70
2022/04/14 03:43:16;;;;;;;;;;;9.30;99.90;;;;;;5003535;28;19921;-70
2022/04/14 03:45:42;;;;;;;;;;;9.30;99.90;;;;;;4999393;28;19921;-70
2022/04/14 03:48:07;;;;;;;;;;;9.30;99.90;;;;;;4994084;28;20080;-70
2022/04/14 03:50:33;;;;;;;;;;;9.20;99.90;;;;;;5007132;28;19921;-70
2022/04/14 03:52:58;;;;;;;;;;;9.20;99.90;;;;;;5012599;28;19968;-69
2022/04/14 03:55:24;;;;;;;;;;;9.10;99.90;;;;;;5003379;28;19926;-69
2022/04/14 03:57:49;;;;;;;;;;;9.20;99.90;;;;;;4998631;28;19925;-69
2022/04/14 04:00:15;;;;;;;;;;;9.20;99.90;;;;;;4999375;28;20004;-70
2022/04/14 04:02:41;;;;;;;;;;;9.10;99.90;;;;;;4999184;28;19921;-70
2022/04/14 04:05:06;;;;;;;;;;;9.10;99.90;;;;;;5023733;28;20008;-69
2022/04/14 04:07:32;;;;;;;;;;;9.10;99.90;;;;;;4998326;28;19925;-70
2022/04/14 04:09:57;;;;;;;;;;;9.10;99.90;;;;;;5022715;28;20391;-70
2022/04/14 04:12:23;;;;;;;;;;;9.10;99.90;;;;;;4997840;28;20279;-69
2022/04/14 04:14:49;;;;;;;;;;;9.00;99.90;;;;;;5010031;28;19922;-68
2022/04/14 04:17:15;;;;;;;;;;;9.00;99.90;;;;;;5001038;28;20379;-71
2022/04/14 04:19:42;;;;;;;;;;;9.20;99.90;;;;;;5015769;28;19948;-70
2022/04/14 04:22:08;;;;;;;;;;;9.00;99.90;;;;;;5010878;28;20401;-71
2022/04/14 04:24:33;;;;;;;;;;;9.00;99.90;;;;;;5001140;28;19922;-70
2022/04/14 04:26:59;;;;;;;;;;;8.90;99.90;;;;;;5009802;28;20426;-70
2022/04/14 04:29:24;;;;;;;;;;;8.90;99.90;;;;;;5018031;28;19925;-71
2022/04/14 04:31:50;;;;;;;;;;;8.90;99.90;;;;;;4999459;28;20391;-69
2022/04/14 04:34:17;;;;;;;;;;;8.90;99.90;;;;;;4997501;28;20273;-70
2022/04/14 04:36:42;;;;;;;;;;;8.90;99.90;;;;;;5012103;28;19975;-70
2022/04/14 04:39:08;;;;;;;;;;;7.40;99.90;;;;;;5016440;28;19921;-69
2022/04/14 04:41:37;;;;;;;;;;;8.80;99.90;;;;;;5013808;28;19928;-69
2022/04/14 04:44:04;;;;;;;;;;;8.90;99.90;;;;;;5001308;28;19922;-70
2022/04/14 04:46:30;;;;;;;;;;;8.80;99.90;;;;;;5009925;28;19921;-70
2022/04/14 04:48:56;;;;;;;;;;;8.80;99.90;;;;;;5004977;28;19925;-70
2022/04/14 04:51:21;;;;;;;;;;;8.70;99.90;;;;;;5004863;28;20008;-70
2022/04/14 04:53:47;;;;;;;;;;;8.90;99.90;;;;;;5000052;28;20012;-70
2022/04/14 04:56:13;;;;;;;;;;;8.70;99.90;;;;;;5017205;28;19921;-70
2022/04/14 04:58:38;;;;;;;;;;;8.70;99.90;;;;;;5007847;28;19972;-71
2022/04/14 05:01:04;;;;;;;;;;;8.70;99.90;;;;;;5023682;28;19922;-69
2022/04/14 05:03:29;;;;;;;;;;;8.70;99.90;;;;;;5003976;28;20261;-70
2022/04/14 05:05:55;;;;;;;;;;;8.70;99.90;;;;;;5010975;28;19969;-70
2022/04/14 05:08:21;;;;;;;;;;;8.70;99.90;;;;;;5013638;28;19991;-70
2022/04/14 05:10:58;;;;;;;;;;;9.00;99.90;;;;;;5009755;28;19977;-70
2022/04/14 05:13:23;;;;;;;;;;;8.70;99.90;;;;;;5000418;28;19921;-70
2022/04/14 05:15:49;;;;;;;;;;;8.70;99.90;;;;;;5005044;28;19921;-70
2022/04/14 05:18:16;;;;;;;;;;;8.70;99.90;;;;;;5005608;28;19925;-69
2022/04/14 05:20:42;;;;;;;;;;;8.80;99.90;;;;;;5004465;28;20017;-69
2022/04/14 05:23:08;;;;;;;;;;;8.80;99.90;;;;;;5000329;28;19922;-70
2022/04/14 05:25:34;;;;;;;;;;;8.80;99.90;;;;;;5005230;28;19937;-70
2022/04/14 05:28:00;;;;;;;;;;;9.10;99.90;;;;;;5007741;28;20363;-69
2022/04/14 05:30:25;;;;;;;;;;;10.10;99.90;;;;;;5013902;28;19933;-69
2022/04/14 05:32:51;;;;;;;;;;;9.00;99.90;;;;;;5001966;28;19976;-70
2022/04/14 05:35:16;;;;;;;;;;;9.10;99.90;;;;;;5001825;28;19921;-69
2022/04/14 05:37:42;;;;;;;;;;;9.40;99.90;;;;;;5009393;28;19964;-69
2022/04/14 05:40:09;;;;;;;;;;;9.20;99.90;;;;;;5000826;28;19917;-70
2022/04/14 05:42:35;;;;;;;;;;;9.30;99.90;;;;;;5002933;28;20004;-68
2022/04/14 05:45:03;;;;;;;;;;;10.50;99.90;;;;;;5005968;28;19921;-69
2022/04/14 05:47:29;;;;;;;;;;;9.40;99.90;;;;;;5001211;28;20264;-70
2022/04/14 05:49:54;;;;;;;;;;;9.60;99.90;;;;;;5012779;28;19921;-69
2022/04/14 05:52:21;;;;;;;;;;;9.50;99.90;;;;;;5006241;28;19976;-69
2022/04/14 05:54:47;;;;;;;;;;;9.70;99.90;;;;;;5009965;28;19928;-69
2022/04/14 05:57:14;;;;;;;;;;;9.60;99.90;;;;;;5003098;28;19964;-70
2022/04/14 05:59:39;;;;;;;;;;;9.90;99.90;;;;;;5017766;28;19921;-70
2022/04/14 06:02:05;;;;;;;;;;;9.90;99.90;;;;;;5007682;28;20004;-69
2022/04/14 06:04:31;;;;;;;;;;;10.00;99.90;;;;;;5005803;28;20273;-69
2022/04/14 06:06:56;;;;;;;;;;;10.00;99.90;;;;;;5002494;28;19947;-69
2022/04/14 06:09:22;;;;;;;;;;;10.00;99.90;;;;;;5004340;28;19922;-70
2022/04/14 06:11:47;;;;;;;;;;;10.10;99.90;;;;;;5004640;28;19928;-69
2022/04/14 06:14:15;;;;;;;;;;;10.70;99.90;;;;;;5012098;28;19921;-69
2022/04/14 06:16:41;;;;;;;;;;;10.80;99.90;;;;;;5003424;28;20257;-69
2022/04/14 06:19:07;;;;;;;;;;;11.20;99.90;;;;;;5002484;28;19925;-68
2022/04/14 06:21:33;;;;;;;;;;;11.70;99.90;;;;;;5000397;28;19924;-70
2022/04/14 06:23:58;;;;;;;;;;;12.10;99.90;;;;;;5010393;28;19921;-68
2022/04/14 06:26:24;;;;;;;;;;;12.50;99.90;;;;;;5007296;28;20185;-68
2022/04/14 06:28:49;;;;;;;;;;;12.70;99.90;;;;;;5013788;28;19921;-70
2022/04/14 06:31:15;;;;;;;;;;;12.90;99.90;;;;;;5019924;28;19997;-69
2022/04/14 06:33:41;;;;;;;;;;;12.90;99.90;;;;;;4998161;28;20015;-69
2022/04/14 06:36:10;;;;;;;;;;;12.90;99.90;;;;;;5004635;28;20451;-68
2022/04/14 06:38:39;;;;;;;;;;;12.70;99.90;;;;;;4996946;28;19969;-69
2022/04/14 06:41:05;;;;;;;;;;;12.60;99.90;;;;;;5011738;28;19929;-70
2022/04/14 06:43:32;;;;;;;;;;;12.60;99.90;;;;;;4995792;28;19926;-72
2022/04/14 06:46:03;;;;;;;;;;;12.70;99.90;;;;;;5008100;28;19921;-69
2022/04/14 06:48:30;;;;;;;;;;;13.00;99.90;;;;;;5004257;28;20008;-68
2022/04/14 06:50:55;;;;;;;;;;;13.40;99.90;;;;;;5025616;28;19921;-69
2022/04/14 06:53:21;;;;;;;;;;;13.70;99.90;;;;;;5003585;28;19921;-69
2022/04/14 06:55:48;;;;;;;;;;;14.20;99.90;;;;;;4994040;28;19921;-70
2022/04/14 06:58:13;;;;;;;;;;;14.50;99.90;;;;;;5011305;28;20283;-70
2022/04/14 07:00:40;;;;;;;;;;;14.90;99.90;;;;;;5010911;28;19922;-69
2022/04/14 07:03:06;;;;;;;;;;;15.00;99.90;;;;;;5004626;28;19922;-67
2022/04/14 07:05:32;;;;;;;;;;;14.60;99.90;;;;;;5003192;28;21621;-68
2022/04/14 07:07:57;;;;;;;;;;;14.40;99.90;;;;;;5024216;28;20012;-68
2022/04/14 07:10:27;;;;;;;;;;;14.20;99.90;;;;;;5003647;28;19921;-69
2022/04/14 07:12:53;;;;;;;;;;;14.10;99.90;;;;;;5009855;28;19928;-69
2022/04/14 07:15:19;;;;;;;;;;;14.00;99.90;;;;;;5004781;28;19987;-68
2022/04/14 07:17:44;;;;;;;;;;;14.00;99.90;;;;;;5007178;28;19961;-69
2022/04/14 07:20:10;;;;;;;;;;;14.00;99.90;;;;;;5001285;28;19921;-70
2022/04/14 07:22:42;;;;;;;;;;;14.00;99.90;;;;;;5002910;28;19921;-69
2022/04/14 07:25:08;;;;;;;;;;;14.10;99.90;;;;;;5023622;28;20011;-68
2022/04/14 07:27:33;;;;;;;;;;;14.20;99.90;;;;;;5007316;28;20008;-68
2022/04/14 07:29:59;;;;;;;;;;;14.20;99.90;;;;;;5008858;28;19922;-69
2022/04/14 07:32:33;;;;;;;;;;;13.80;99.90;;;;;;5007406;28;19930;-67
2022/04/14 07:34:58;;;;;;;;;;;14.40;99.90;;;;;;5008803;28;19926;-68
2022/04/14 07:37:24;;;;;;;;;;;14.60;99.90;;;;;;5006216;28;20041;-68
2022/04/14 07:39:49;;;;;;;;;;;14.60;99.90;;;;;;5015469;28;20008;-68
2022/04/14 07:42:15;;;;;;;;;;;14.60;99.90;;;;;;5022704;28;19921;-68
2022/04/14 07:44:40;;;;;;;;;;;14.70;99.90;;;;;;5000958;28;20307;-67
2022/04/14 07:47:06;;;;;;;;;;;14.80;99.90;;;;;;5005039;28;19964;-67
2022/04/14 07:49:32;;;;;;;;;;;14.80;99.90;;;;;;4998853;28;19966;-68
2022/04/14 07:51:57;;;;;;;;;;;14.80;99.90;;;;;;5005776;28;19979;-68
2022/04/14 07:54:23;;;;;;;;;;;15.00;99.90;;;;;;5007608;28;19922;-69
2022/04/14 07:56:48;;;;;;;;;;;15.10;99.90;;;;;;5002154;28;19922;-70
2022/04/14 07:59:14;;;;;;;;;;;15.10;99.90;;;;;;4998490;28;20467;-69
2022/04/14 08:01:39;;;;;;;;;;;15.20;99.90;;;;;;5001909;28;19921;-69
2022/04/14 08:04:05;;;;;;;;;;;15.30;99.90;;;;;;4997518;28;19922;-69
2022/04/14 08:06:31;;;;;;;;;;;15.40;99.90;;;;;;4995952;28;20387;-69
2022/04/14 08:08:57;;;;;;;;;;;15.50;99.90;;;;;;5011367;28;20006;-68
2022/04/14 08:11:22;;;;;;;;;;;15.60;99.90;;;;;;5002394;28;19921;-67
2022/04/14 08:13:48;;;;;;;;;;;15.60;99.90;;;;;;5006125;28;19933;-67
2022/04/14 08:16:13;;;;;;;;;;;15.70;99.90;;;;;;4995602;28;20057;-68
2022/04/14 08:18:40;;;;;;;;;;;15.70;99.90;;;;;;5004381;28;19921;-68
2022/04/14 08:21:06;;;;;;;;;;;15.80;99.90;;;;;;5009411;28;19990;-68
2022/04/14 08:23:39;;;;;;;;;;;16.00;99.90;;;;;;5008796;28;19929;-68
2022/04/14 08:26:07;;;;;;;;;;;16.10;99.90;;;;;;5007931;28;19967;-68
2022/04/14 08:28:40;;;;;;;;;;;16.00;99.90;;;;;;5008021;28;19937;-67
2022/04/14 08:31:07;;;;;;;;;;;16.10;99.90;;;;;;5011582;28;19921;-67
2022/04/14 08:33:32;;;;;;;;;;;16.10;99.90;;;;;;5007585;28;19921;-67
2022/04/14 08:35:59;;;;;;;;;;;16.30;99.90;;;;;;5006473;28;20339;-66
2022/04/14 08:38:25;;;;;;;;;;;16.30;99.90;;;;;;5009008;28;19936;-66
2022/04/14 08:41:00;;;;;;;;;;;16.40;99.90;;;;;;5012399;28;19921;-66
2022/04/14 08:43:33;;;;;;;;;;;16.50;99.90;;;;;;5007939;28;19925;-67
2022/04/14 08:45:59;;;;;;;;;;;16.70;99.90;;;;;;5010209;28;20023;-66
2022/04/14 08:48:26;;;;;;;;;;;16.90;99.90;;;;;;5011586;28;19936;-67
2022/04/14 08:50:52;;;;;;;;;;;16.90;99.90;;;;;;4993050;28;19937;-67
2022/04/14 08:53:18;;;;;;;;;;;17.00;99.90;;;;;;5009032;28;19921;-66
2022/04/14 08:55:44;;;;;;;;;;;17.10;99.90;;;;;;5010107;28;19917;-67
2022/04/14 08:58:13;;;;;;;;;;;17.30;99.90;;;;;;5010094;28;20059;-67
2022/04/14 09:00:39;;;;;;;;;;;17.40;99.90;;;;;;5008122;28;19991;-67
2022/04/14 09:03:05;;;;;;;;;;;17.50;99.90;;;;;;5004630;28;19922;-68
2022/04/14 09:05:30;;;;;;;;;;;17.40;99.90;;;;;;5008346;28;20379;-69
2022/04/14 09:07:56;;;;;;;;;;;17.50;99.90;;;;;;5024449;28;20391;-67
2022/04/14 09:10:22;;;;;;;;;;;17.60;99.90;;;;;;5009824;28;20016;-66
2022/04/14 09:12:49;;;;;;;;;;;17.80;99.90;;;;;;5010732;28;20014;-67
2022/04/14 09:15:15;;;;;;;;;;;17.90;99.90;;;;;;5010072;28;21514;-67
2022/04/14 09:17:40;;;;;;;;;;;18.00;99.90;;;;;;5011767;28;19922;-67
2022/04/14 09:20:25;;;;;;;;;;;17.90;99.90;;;;;;5011512;28;19928;-69
2022/04/14 09:23:09;;;;;;;;;;;18.00;99.90;;;;;;5009101;28;19928;-72
2022/04/14 09:25:34;;;;;;;;;;;17.90;99.90;;;;;;5010815;28;19921;-70
2022/04/14 09:28:10;;;;;;;;;;;18.10;99.90;;;;;;5010405;28;19922;-68
2022/04/14 09:30:36;;;;;;;;;;;18.10;99.90;;;;;;5010104;28;19940;-67
2022/04/14 09:33:02;;;;;;;;;;;18.10;99.90;;;;;;5011439;28;19921;-67
2022/04/14 09:35:31;;;;;;;;;;;18.10;99.90;;;;;;5005175;28;20007;-69
2022/04/14 09:38:03;;;;;;;;;;;18.10;99.90;;;;;;5008992;28;19940;-67
2022/04/14 09:40:30;;;;;;;;;;;18.10;99.90;;;;;;5005124;28;19987;-67
2022/04/14 09:42:56;;;;;;;;;;;18.20;99.90;;;;;;5011515;28;19936;-67
2022/04/14 09:45:26;;;;;;;;;;;18.50;99.90;;;;;;5007079;28;20038;-67
2022/04/14 09:47:52;;;;;;;;;;;18.60;99.40;;;;;;5008610;28;19971;-68
2022/04/14 09:50:35;;;;;;;;;;;18.60;99.80;;;;;;5009329;28;19995;-67
2022/04/14 09:53:05;;;;;;;;;;;18.50;99.10;;;;;;5009560;28;19978;-67
2022/04/14 09:55:31;;;;;;;;;;;18.40;99.30;;;;;;5008537;28;20303;-68
2022/04/14 09:58:06;;;;;;;;;;;18.60;99.70;;;;;;5017144;28;20032;-67
2022/04/14 10:00:51;;;;;;;;;;;18.70;99.10;;;;;;5008543;28;19928;-68
2022/04/14 10:03:17;;;;;;;;;;;18.60;97.90;;;;;;5007907;28;19928;-67
2022/04/14 10:05:44;;;;;;;;;;;18.10;98.60;;;;;;5004198;28;19921;-68
2022/04/14 10:08:12;;;;;;;;;;;18.00;99.60;;;;;;5009413;28;19972;-66
2022/04/14 10:10:38;;;;;;;;;;;18.10;99.90;;;;;;4987875;28;19992;-68
2022/04/14 10:13:05;;;;;;;;;;;18.30;99.90;;;;;;5004318;28;20068;-66
2022/04/14 10:15:32;;;;;;;;;;;18.70;99.80;;;;;;4999719;28;19929;-67
2022/04/14 10:17:58;;;;;;;;;;;18.90;99.90;;;;;;5001148;28;20296;-66
2022/04/14 10:20:25;;;;;;;;;;;19.00;98.90;;;;;;5004124;28;19926;-68
2022/04/14 10:22:50;;;;;;;;;;;18.90;98.40;;;;;;5000171;28;19925;-67
2022/04/14 10:25:16;;;;;;;;;;;19.10;99.10;;;;;;5004788;28;19937;-68
2022/04/14 10:27:41;;;;;;;;;;;19.10;99.20;;;;;;5002197;28;20156;-67
2022/04/14 10:30:07;;;;;;;;;;;19.40;99.30;;;;;;5004891;28;19980;-67
2022/04/14 10:32:35;;;;;;;;;;;19.60;98.50;;;;;;5002464;28;20060;-67
2022/04/14 10:35:05;;;;;;;;;;;19.70;97.90;;;;;;5004765;28;19932;-66
2022/04/14 10:37:33;;;;;;;;;;;19.60;97.00;;;;;;5004640;28;19956;-67
2022/04/14 10:39:58;;;;;;;;;;;19.90;97.50;;;;;;5004705;28;20414;-65
2022/04/14 10:42:25;;;;;;;;;;;19.90;96.10;;;;;;5003036;28;19929;-66
2022/04/14 10:44:51;;;;;;;;;;;20.10;95.80;;;;;;5001081;28;19991;-67
2022/04/14 10:47:32;;;;;;;;;;;20.00;93.10;;;;;;5000192;28;20020;-67
2022/04/14 10:49:58;;;;;;;;;;;19.60;95.80;;;;;;5001305;28;19929;-67
2022/04/14 10:52:27;;;;;;;;;;;20.00;96.20;;;;;;5002200;28;19926;-67
2022/04/14 10:54:57;;;;;;;;;;;20.20;94.60;;;;;;5006743;28;19929;-68
2022/04/14 10:57:38;;;;;;;;;;;20.10;93.40;;;;;;4985929;28;20372;-68
2022/04/14 11:00:24;;;;;;;;;;;20.50;93.60;;;;;;5005439;28;20015;-69
2022/04/14 11:03:13;;;;;;;;;;;21.00;93.60;;;;;;5001928;28;19925;-67
2022/04/14 11:05:46;;;;;;;;;;;21.00;91.20;;;;;;5015978;28;19925;-65
2022/04/14 11:08:24;;;;;;;;;;;20.80;91.20;;;;;;5003607;28;20012;-66
2022/04/14 11:11:09;;;;;;;;;;;20.80;91.10;;;;;;5004016;28;19926;-67
2022/04/14 11:13:55;;;;;;;;;;;20.70;92.70;;;;;;5001151;28;19932;-68
2022/04/14 11:16:40;;;;;;;;;;;20.50;91.50;;;;;;4994050;28;20245;-69
2022/04/14 11:19:26;;;;;;;;;;;20.10;92.60;;;;;;4992720;28;19945;-68
2022/04/14 11:22:08;;;;;;;;;;;19.70;93.20;;;;;;5000405;28;19926;-68
2022/04/14 11:24:36;;;;;;;;;;;19.60;92.90;;;;;;5004628;28;20325;-68
2022/04/14 11:27:13;;;;;;;;;;;19.60;93.70;;;;;;5001330;28;20382;-68
2022/04/14 11:29:39;;;;;;;;;;;19.80;93.70;;;;;;4994575;28;20286;-67
2022/04/14 11:32:05;;;;;;;;;;;20.30;92.20;;;;;;5001701;28;19957;-68
2022/04/14 11:34:34;;;;;;;;;;;20.70;91.20;;;;;;4990921;28;20012;-69
2022/04/14 11:37:01;;;;;;;;;;;21.00;92.70;;;;;;5001320;28;19957;-68
2022/04/14 11:39:28;;;;;;;;;;;21.20;89.30;;;;;;5004351;28;19929;-68
2022/04/14 11:41:54;;;;;;;;;;;21.30;92.50;;;;;;4994914;28;20004;-68
2022/04/14 11:44:32;;;;;;;;;;;21.30;91.60;;;;;;5007403;28;20017;-69
2022/04/14 11:47:00;;;;;;;;;;;21.40;89.60;;;;;;5002961;28;19980;-68
2022/04/14 11:49:26;;;;;;;;;;;21.40;88.50;;;;;;5005505;28;19987;-68
2022/04/14 11:51:53;;;;;;;;;;;21.40;86.60;;;;;;5003372;28;19925;-68
2022/04/14 11:54:33;;;;;;;;;;;21.40;85.90;;;;;;5016095;28;20008;-67
2022/04/14 11:57:00;;;;;;;;;;;21.40;87.30;;;;;;4999572;28;19926;-67
2022/04/14 11:59:37;;;;;;;;;;;21.50;86.40;;;;;;5002596;28;19976;-68
2022/04/14 12:02:02;;;;;;;;;;;21.50;86.40;;;;;;4998715;28;20319;-66
2022/04/14 12:04:33;;;;;;;;;;;21.70;83.80;;;;;;5004574;28;19932;-67
2022/04/14 12:06:58;;;;;;;;;;;21.70;84.00;;;;;;5008061;28;20021;-68
2022/04/14 12:09:24;;;;;;;;;;;21.20;87.20;;;;;;5003335;28;20012;-67
2022/04/14 12:11:51;;;;;;;;;;;21.20;86.50;;;;;;5002354;28;19932;-69
2022/04/14 12:14:17;;;;;;;;;;;21.30;85.10;;;;;;4996092;28;19926;-70
2022/04/14 12:16:48;;;;;;;;;;;21.20;86.00;;;;;;5009852;28;20307;-68
2022/04/14 12:19:14;;;;;;;;;;;21.00;85.30;;;;;;5002511;28;20003;-68
2022/04/14 12:21:40;;;;;;;;;;;20.70;87.90;;;;;;5000251;28;19976;-68
2022/04/14 12:24:05;;;;;;;;;;;20.60;88.90;;;;;;5026055;28;20356;-68
2022/04/14 12:26:35;;;;;;;;;;;20.50;89.70;;;;;;5004218;28;19944;-68
2022/04/14 12:29:01;;;;;;;;;;;20.40;90.20;;;;;;5004718;28;20007;-67
2022/04/14 12:31:29;;;;;;;;;;;20.20;90.10;;;;;;5001641;28;19988;-67
2022/04/14 12:33:58;;;;;;;;;;;20.00;90.10;;;;;;4995744;28;20394;-68
2022/04/14 12:36:34;;;;;;;;;;;19.80;90.20;;;;;;5004746;28;19930;-69
2022/04/14 12:39:00;;;;;;;;;;;19.30;90.90;;;;;;5002045;28;19925;-67
2022/04/14 12:41:32;;;;;;;;;;;19.10;92.30;;;;;;5010788;28;20285;-67
2022/04/14 12:43:57;;;;;;;;;;;19.00;93.60;;;;;;5008601;28;20032;-67
2022/04/14 12:46:24;;;;;;;;;;;18.80;94.00;;;;;;5009612;28;20027;-68
2022/04/14 12:49:00;;;;;;;;;;;18.70;95.00;;;;;;5009033;28;20421;-67
2022/04/14 12:51:32;;;;;;;;;;;18.50;96.00;;;;;;5005247;28;19927;-68
2022/04/14 12:53:57;;;;;;;;;;;18.50;96.10;;;;;;4994325;28;19929;-68
2022/04/14 12:56:23;;;;;;;;;;;18.30;97.10;;;;;;5013664;28;19975;-68
2022/04/14 12:59:12;;;;;;;;;;;18.20;97.60;;;;;;4996720;28;19925;-68
2022/04/14 13:01:48;;;;;;;;;;;18.10;97.70;;;;;;4991950;28;20017;-68
2022/04/14 13:04:14;;;;;;;;;;;18.00;98.30;;;;;;5003285;28;20392;-66
2022/04/14 13:06:39;;;;;;;;;;;17.90;98.90;;;;;;5001929;28;20426;-68
2022/04/14 13:09:15;;;;;;;;;;;17.70;98.90;;;;;;5004324;28;20016;-68
2022/04/14 13:11:46;;;;;;;;;;;17.70;99.00;;;;;;4994243;28;19932;-69
2022/04/14 13:14:30;;;;;;;;;;;17.50;99.80;;;;;;4995248;28;19925;-68
2022/04/14 13:16:57;;;;;;;;;;;17.40;99.90;;;;;;5000749;28;19926;-68
2022/04/14 13:19:23;;;;;;;;;;;17.20;99.90;;;;;;5000642;28;19925;-68
2022/04/14 13:21:49;;;;;;;;;;;17.10;99.90;;;;;;4993365;28;19952;-68
2022/04/14 13:24:15;;;;;;;;;;;17.10;99.90;;;;;;5002978;28;19925;-68
2022/04/14 13:26:41;;;;;;;;;;;17.10;99.90;;;;;;5001877;28;19933;-68
2022/04/14 13:29:10;;;;;;;;;;;17.20;99.90;;;;;;4997082;28;19925;-68
2022/04/14 13:31:35;;;;;;;;;;;17.00;99.90;;;;;;5001455;28;19926;-69
2022/04/14 13:34:01;;;;;;;;;;;16.90;99.90;;;;;;4990235;28;19933;-69
2022/04/14 13:36:26;;;;;;;;;;;16.70;99.90;;;;;;5000878;28;20383;-68
2022/04/14 13:38:52;;;;;;;;;;;16.70;99.90;;;;;;4962166;28;1100724;-69
2022/04/14 13:41:18;;;;;;;;;;;15.80;99.90;;;;;;5008359;28;19984;-69
2022/04/14 13:43:44;;;;;;;;;;;16.60;99.90;;;;;;4997281;28;20368;-68
2022/04/14 13:46:13;;;;;;;;;;;16.70;99.90;;;;;;5016770;28;20045;-69
2022/04/14 13:48:39;;;;;;;;;;;16.60;99.90;;;;;;5001205;28;19933;-69
2022/04/14 13:51:05;;;;;;;;;;;16.50;99.90;;;;;;5001451;28;19925;-69
2022/04/14 13:53:30;;;;;;;;;;;16.40;99.90;;;;;;4992256;28;20221;-68
2022/04/14 13:55:56;;;;;;;;;;;16.40;99.90;;;;;;5000024;28;19925;-68
2022/04/14 13:58:22;;;;;;;;;;;16.60;99.90;;;;;;4995880;28;19925;-68
2022/04/14 14:00:48;;;;;;;;;;;17.00;99.90;;;;;;5008996;28;20015;-68
2022/04/14 14:03:15;;;;;;;;;;;17.20;99.90;;;;;;4995022;28;20418;-69
2022/04/14 14:05:40;;;;;;;;;;;17.50;99.90;;;;;;5003561;28;20021;-67
2022/04/14 14:08:06;;;;;;;;;;;17.30;99.90;;;;;;5001055;28;20063;-70
2022/04/14 14:10:31;;;;;;;;;;;17.20;99.90;;;;;;4994866;28;19932;-68
2022/04/14 14:12:57;;;;;;;;;;;17.30;99.90;;;;;;4994552;28;19925;-67
2022/04/14 14:15:22;;;;;;;;;;;16.90;99.90;;;;;;5003642;28;19926;-68
2022/04/14 14:17:48;;;;;;;;;;;16.80;99.90;;;;;;4996579;28;19925;-68
2022/04/14 14:20:14;;;;;;;;;;;16.60;99.90;;;;;;4997469;28;19937;-67